Time;durP1;ratioP1;P1;durP2;ratioP2;P2;SDS_P1;SDS_P2;PMS_P1;PMS_P2;Temp;Humidity;BMP_temperature;BMP_pressure;BME280_temperature;BME280_humidity;BME280_pressure;Samples;Min_cycle;Max_cycle;Signal;HPM_P1;HPM_P2
2023/04/28 00:00:27;;;;;;;4.15;3.85;;;15.60;44.40;;;;;;20519;6842;278196;-73
2023/04/28 00:02:53;;;;;;;5.03;3.77;;;15.60;44.70;;;;;;20727;6842;117327;-73
2023/04/28 00:05:18;;;;;;;4.23;3.93;;;15.50;44.90;;;;;;20513;6842;337953;-73
2023/04/28 00:07:44;;;;;;;5.30;4.00;;;15.60;44.00;;;;;;20727;6842;117075;-73
2023/04/28 00:10:09;;;;;;;4.68;4.37;;;15.50;44.00;;;;;;20499;6842;281532;-73
2023/04/28 00:12:37;;;;;;;4.90;4.60;;;15.40;44.00;;;;;;20720;6842;118563;-73
2023/04/28 00:15:03;;;;;;;5.13;4.77;;;15.40;44.00;;;;;;20514;6842;308122;-73
2023/04/28 00:17:28;;;;;;;5.20;4.80;;;15.50;44.50;;;;;;20510;6842;303398;-73
2023/04/28 00:19:54;;;;;;;4.17;3.87;;;15.70;44.40;;;;;;20731;6842;117115;-73
2023/04/28 00:22:19;;;;;;;5.20;4.00;;;15.50;44.40;;;;;;20709;6840;117795;-73
2023/04/28 00:24:45;;;;;;;4.37;4.05;;;15.30;44.90;;;;;;20500;6841;337580;-73
2023/04/28 00:27:11;;;;;;;4.60;4.20;;;15.40;45.80;;;;;;20731;6841;117051;-73
2023/04/28 00:29:37;;;;;;;4.95;4.53;;;15.40;45.60;;;;;;20518;6841;338167;-73
2023/04/28 00:32:02;;;;;;;4.90;4.50;;;15.40;45.60;;;;;;20500;6841;338920;-73
2023/04/28 00:34:28;;;;;;;10.13;4.53;;;15.60;45.10;;;;;;20725;6842;118222;-73
2023/04/28 00:36:55;;;;;;;4.57;4.27;;;15.50;45.10;;;;;;20716;6842;117864;-73
2023/04/28 00:39:22;;;;;;;5.20;4.80;;;15.20;45.40;;;;;;20725;6842;117988;-74
2023/04/28 00:41:46;;;;;;;5.57;5.07;;;14.90;45.70;;;;;;20513;6842;307212;-74
2023/04/28 00:44:11;;;;;;;6.03;5.37;;;15.10;45.90;;;;;;20512;6842;307781;-74
2023/04/28 00:46:37;;;;;;;5.18;4.85;;;15.40;45.30;;;;;;20527;6842;311709;-74
2023/04/28 00:49:03;;;;;;;4.47;4.27;;;15.60;44.90;;;;;;20739;6842;117130;-74
2023/04/28 00:51:28;;;;;;;5.10;4.70;;;15.50;44.80;;;;;;20519;6842;278136;-74
2023/04/28 00:53:54;;;;;;;5.10;4.63;;;15.50;44.80;;;;;;20501;6842;308588;-74
2023/04/28 00:56:19;;;;;;;5.00;4.60;;;15.70;44.70;;;;;;20497;6842;337196;-74
2023/04/28 00:58:45;;;;;;;4.93;4.53;;;15.90;44.50;;;;;;20722;6842;118043;-74
2023/04/28 01:01:11;;;;;;;5.28;4.87;;;15.70;44.80;;;;;;20517;6842;293323;-74
2023/04/28 01:03:37;;;;;;;4.80;4.50;;;15.70;44.80;;;;;;20508;6842;308110;-74
2023/04/28 01:06:06;;;;;;;4.50;4.30;;;15.90;44.60;;;;;;20490;6842;282394;-74
2023/04/28 01:08:31;;;;;;;4.10;3.80;;;16.10;44.10;;;;;;20725;6842;117492;-74
2023/04/28 01:10:57;;;;;;;3.87;3.57;;;15.90;44.20;;;;;;20716;6842;117138;-74
2023/04/28 01:13:22;;;;;;;3.53;3.33;;;15.60;44.70;;;;;;20729;6842;117503;-74
2023/04/28 01:15:48;;;;;;;4.15;3.80;;;15.30;45.20;;;;;;20516;6842;279942;-74
2023/04/28 01:18:13;;;;;;;4.70;4.37;;;15.50;45.50;;;;;;20495;6842;313450;-74
2023/04/28 01:20:39;;;;;;;5.07;4.78;;;15.80;45.20;;;;;;20505;6842;323162;-73
2023/04/28 01:23:05;;;;;;;4.62;4.32;;;15.90;44.50;;;;;;20734;6842;117159;-73
2023/04/28 01:25:31;;;;;;;4.03;3.70;;;15.90;44.40;;;;;;20715;6842;118176;-74
2023/04/28 01:27:56;;;;;;;5.03;4.53;;;15.60;44.80;;;;;;20505;6842;285167;-74
2023/04/28 01:30:23;;;;;;;4.47;4.18;;;15.70;45.10;;;;;;20516;6842;307663;-73
2023/04/28 01:32:49;;;;;;;4.27;3.77;;;16.00;44.80;;;;;;20721;6842;117121;-74
2023/04/28 01:35:14;;;;;;;3.90;3.60;;;15.90;44.80;;;;;;20518;6840;308084;-74
2023/04/28 01:37:40;;;;;;;3.90;3.70;;;15.90;44.90;;;;;;20727;6841;117255;-74
2023/04/28 01:40:06;;;;;;;3.67;3.47;;;15.80;45.00;;;;;;20712;6841;117353;-74
2023/04/28 01:42:31;;;;;;;5.07;3.80;;;15.60;45.30;;;;;;20727;6841;121559;-73
2023/04/28 01:44:57;;;;;;;3.80;3.50;;;15.30;45.50;;;;;;20726;6841;117124;-73
2023/04/28 01:47:22;;;;;;;3.92;3.62;;;15.20;45.80;;;;;;20516;6842;337503;-73
2023/04/28 01:49:49;;;;;;;3.87;3.60;;;15.30;46.20;;;;;;20724;6842;117267;-73
2023/04/28 01:52:14;;;;;;;4.37;3.67;;;15.30;46.00;;;;;;20493;6842;308624;-73
2023/04/28 01:54:39;;;;;;;4.03;3.72;;;15.50;46.00;;;;;;20729;6842;117530;-73
2023/04/28 01:57:05;;;;;;;3.40;3.20;;;15.30;46.10;;;;;;20724;6842;117075;-73
2023/04/28 01:59:32;;;;;;;3.70;3.40;;;15.20;46.00;;;;;;20517;6842;277894;-74
2023/04/28 02:01:58;;;;;;;3.50;3.30;;;15.40;46.50;;;;;;20707;6842;117762;-74
2023/04/28 02:04:24;;;;;;;3.60;3.40;;;15.20;46.60;;;;;;20725;6842;117719;-73
2023/04/28 02:06:50;;;;;;;3.70;3.50;;;15.20;46.70;;;;;;20514;6842;287626;-73
2023/04/28 02:09:15;;;;;;;3.83;3.53;;;15.40;47.10;;;;;;20515;6842;307663;-73
2023/04/28 02:11:41;;;;;;;3.63;3.43;;;15.70;46.10;;;;;;20735;6842;117107;-73
2023/04/28 02:14:07;;;;;;;3.80;3.50;;;15.70;46.10;;;;;;20501;6842;306843;-73
2023/04/28 02:16:33;;;;;;;4.07;3.50;;;15.70;46.20;;;;;;20517;6842;337206;-73
2023/04/28 02:18:58;;;;;;;3.85;3.58;;;15.90;46.20;;;;;;20509;6842;307697;-73
2023/04/28 02:21:25;;;;;;;4.37;3.97;;;16.20;46.20;;;;;;20460;6842;285647;-74
2023/04/28 02:23:49;;;;;;;3.65;3.45;;;16.30;45.70;;;;;;20480;6842;321970;-73
2023/04/28 02:26:15;;;;;;;3.73;3.50;;;16.40;45.70;;;;;;20495;6842;401152;-73
2023/04/28 02:28:41;;;;;;;3.83;3.60;;;16.50;45.80;;;;;;20457;6842;344813;-73
2023/04/28 02:31:09;;;;;;;3.80;3.50;;;16.60;44.90;;;;;;20688;6842;117381;-74
2023/04/28 02:33:35;;;;;;;4.10;3.80;;;16.30;45.00;;;;;;20707;6842;117038;-74
2023/04/28 02:36:00;;;;;;;3.30;3.10;;;15.90;45.50;;;;;;20688;6842;117749;-73
2023/04/28 02:38:26;;;;;;;4.30;3.40;;;15.50;45.80;;;;;;20495;6842;307537;-73
2023/04/28 02:41:01;;;;;;;4.10;3.80;;;15.60;45.40;;;;;;20492;6842;311144;-74
2023/04/28 02:43:27;;;;;;;3.70;3.40;;;15.90;45.10;;;;;;20699;6842;117182;-73
2023/04/28 02:45:52;;;;;;;4.15;3.87;;;15.80;45.10;;;;;;20512;6840;308968;-73
2023/04/28 02:48:18;;;;;;;4.17;3.40;;;15.80;45.00;;;;;;20706;6841;120641;-74
2023/04/28 02:50:45;;;;;;;4.10;3.80;;;15.70;45.80;;;;;;20732;6841;117069;-73
2023/04/28 02:53:09;;;;;;;3.80;3.60;;;15.50;45.60;;;;;;20519;6841;279278;-73
2023/04/28 02:55:35;;;;;;;4.00;3.80;;;15.60;45.50;;;;;;20521;6841;278230;-73
2023/04/28 02:58:00;;;;;;;3.67;3.37;;;15.90;45.70;;;;;;20717;6842;117645;-73
2023/04/28 03:00:26;;;;;;;4.10;3.75;;;15.90;45.60;;;;;;20526;6842;282091;-73
2023/04/28 03:02:52;;;;;;;3.97;3.35;;;15.90;46.00;;;;;;20738;6842;117217;-73
2023/04/28 03:05:17;;;;;;;11.38;10.27;;;15.80;46.10;;;;;;20729;6842;117352;-73
2023/04/28 03:07:43;;;;;;;23.07;20.70;;;15.50;46.60;;;;;;20527;6842;279940;-73
2023/04/28 03:10:08;;;;;;;5.10;4.70;;;15.60;47.40;;;;;;20496;6842;282420;-73
2023/04/28 03:12:35;;;;;;;3.77;3.50;;;16.10;45.20;;;;;;20520;6842;278786;-72
2023/04/28 03:15:00;;;;;;;3.60;3.30;;;16.10;45.20;;;;;;20727;6842;117806;-75
2023/04/28 03:17:26;;;;;;;3.80;3.50;;;15.90;45.40;;;;;;20519;6842;277424;-73
2023/04/28 03:19:52;;;;;;;3.77;3.47;;;15.90;45.40;;;;;;20722;6842;117551;-72
2023/04/28 03:22:17;;;;;;;3.90;3.70;;;15.80;45.60;;;;;;20708;6842;117450;-72
2023/04/28 03:24:43;;;;;;;4.05;3.75;;;15.50;46.00;;;;;;20521;6842;307490;-72
2023/04/28 03:27:10;;;;;;;4.07;3.70;;;15.80;45.60;;;;;;20514;6842;308032;-72
2023/04/28 03:29:36;;;;;;;5.63;3.57;;;15.80;45.60;;;;;;20727;6842;122984;-72
2023/04/28 03:32:02;;;;;;;4.07;3.78;;;15.70;46.70;;;;;;20505;6842;311927;-72
2023/04/28 03:34:28;;;;;;;4.10;3.80;;;15.70;46.70;;;;;;20515;6842;278594;-72
2023/04/28 03:36:54;;;;;;;4.95;3.78;;;15.90;46.90;;;;;;20523;6842;308957;-71
2023/04/28 03:39:19;;;;;;;4.87;3.40;;;16.00;46.80;;;;;;20732;6842;117608;-72
2023/04/28 03:41:45;;;;;;;4.80;4.05;;;15.70;46.70;;;;;;20524;6842;280889;-72
2023/04/28 03:44:11;;;;;;;5.30;4.60;;;15.70;48.10;;;;;;20495;6842;307261;-72
2023/04/28 03:46:37;;;;;;;6.03;4.53;;;15.70;48.10;;;;;;20522;6842;308440;-72
2023/04/28 03:49:03;;;;;;;4.75;4.35;;;15.50;48.10;;;;;;20659;6842;121319;-72
2023/04/28 03:51:29;;;;;;;6.83;4.60;;;15.50;48.10;;;;;;20730;6842;117277;-72
2023/04/28 03:53:55;;;;;;;5.50;4.80;;;14.80;49.10;;;;;;20742;6842;117790;-72
2023/04/28 03:56:20;;;;;;;5.37;5.07;;;14.80;49.00;;;;;;20503;6842;336960;-72
2023/04/28 03:58:46;;;;;;;5.95;5.05;;;14.90;49.90;;;;;;20739;6840;118056;-72
2023/04/28 04:01:11;;;;;;;5.55;4.60;;;14.80;49.70;;;;;;20735;6841;117267;-72
2023/04/28 04:03:38;;;;;;;7.72;4.70;;;14.60;49.90;;;;;;20729;6841;116351;-72
2023/04/28 04:06:04;;;;;;;5.70;5.07;;;14.40;50.30;;;;;;20716;6841;119386;-73
2023/04/28 04:08:31;;;;;;;5.53;5.03;;;14.20;50.70;;;;;;20511;6842;313297;-72
2023/04/28 04:10:55;;;;;;;5.62;5.22;;;14.40;51.70;;;;;;20512;6842;342101;-73
2023/04/28 04:13:21;;;;;;;5.70;5.20;;;14.80;51.40;;;;;;20727;6842;117559;-73
2023/04/28 04:15:53;;;;;;;7.45;6.78;;;14.70;50.80;;;;;;20516;6842;307715;-72
2023/04/28 04:18:22;;;;;;;7.53;5.60;;;14.80;50.90;;;;;;20724;6842;118753;-73
2023/04/28 04:20:48;;;;;;;5.10;4.70;;;14.70;50.60;;;;;;20737;6842;117298;-73
2023/04/28 04:23:14;;;;;;;5.67;5.27;;;14.60;51.50;;;;;;20519;6842;313086;-74
2023/04/28 04:25:40;;;;;;;6.30;5.90;;;14.60;51.30;;;;;;20518;6842;307285;-74
2023/04/28 04:28:05;;;;;;;6.15;5.65;;;14.90;50.60;;;;;;20493;6842;310316;-73
2023/04/28 04:30:32;;;;;;;5.80;5.30;;;15.10;50.20;;;;;;20724;6842;117599;-72
2023/04/28 04:32:58;;;;;;;5.43;5.13;;;14.70;50.40;;;;;;20721;6842;118012;-72
2023/04/28 04:35:24;;;;;;;6.63;5.43;;;14.70;50.50;;;;;;20729;6842;119412;-72
2023/04/28 04:37:50;;;;;;;5.60;5.20;;;14.40;50.80;;;;;;20732;6842;117364;-72
2023/04/28 04:40:15;;;;;;;6.40;5.97;;;14.20;51.20;;;;;;20508;6842;311200;-73
2023/04/28 04:42:41;;;;;;;5.90;5.43;;;14.40;52.60;;;;;;20740;6842;117818;-71
2023/04/28 04:45:07;;;;;;;7.82;5.68;;;14.40;52.20;;;;;;20516;6842;334816;-72
2023/04/28 04:47:32;;;;;;;5.80;5.30;;;14.60;52.70;;;;;;20729;6842;123548;-71
2023/04/28 04:49:58;;;;;;;4.93;4.63;;;14.50;52.20;;;;;;20713;6842;121113;-72
2023/04/28 04:52:23;;;;;;;5.43;5.00;;;14.40;52.40;;;;;;20725;6842;123128;-72
2023/04/28 04:54:49;;;;;;;5.67;5.20;;;14.20;52.60;;;;;;20728;6842;120077;-75
2023/04/28 04:57:15;;;;;;;7.80;5.50;;;13.90;53.60;;;;;;20725;6842;117063;-69
2023/04/28 04:59:41;;;;;;;6.10;5.70;;;13.90;53.10;;;;;;20516;6842;312686;-70
2023/04/28 05:02:06;;;;;;;5.80;5.30;;;14.20;54.70;;;;;;20706;6842;122279;-70
2023/04/28 05:04:32;;;;;;;5.87;5.47;;;14.20;54.10;;;;;;20515;6842;341260;-69
2023/04/28 05:06:57;;;;;;;5.47;5.07;;;14.40;54.50;;;;;;20719;6842;118053;-74
2023/04/28 05:09:26;;;;;;;6.17;5.67;;;14.30;54.20;;;;;;20720;6840;117327;-73
2023/04/28 05:11:51;;;;;;;5.83;5.43;;;14.30;54.20;;;;;;20514;6841;308539;-70
2023/04/28 05:14:17;;;;;;;5.85;5.35;;;14.50;54.90;;;;;;20494;6841;308518;-69
2023/04/28 05:16:42;;;;;;;5.93;5.57;;;14.90;54.40;;;;;;20511;6841;279341;-70
2023/04/28 05:19:08;;;;;;;5.97;5.47;;;15.20;54.00;;;;;;20521;6841;337628;-70
2023/04/28 05:21:35;;;;;;;4.70;4.50;;;15.40;53.60;;;;;;20727;6841;117150;-70
2023/04/28 05:24:01;;;;;;;5.30;4.97;;;15.00;53.50;;;;;;20717;6842;146454;-71
2023/04/28 05:26:26;;;;;;;5.13;4.70;;;15.00;53.50;;;;;;20731;6842;117238;-72
2023/04/28 05:28:53;;;;;;;4.80;4.50;;;14.60;54.10;;;;;;20734;6842;117108;-72
2023/04/28 05:31:18;;;;;;;5.23;4.83;;;14.60;54.10;;;;;;20715;6842;117571;-72
2023/04/28 05:33:44;;;;;;;4.77;4.47;;;14.40;54.20;;;;;;20725;6842;117248;-72
2023/04/28 05:36:09;;;;;;;5.50;5.10;;;14.40;54.50;;;;;;20497;6842;307703;-72
2023/04/28 05:38:35;;;;;;;4.77;4.37;;;14.60;55.50;;;;;;20719;6842;117486;-71
2023/04/28 05:41:00;;;;;;;5.83;5.33;;;14.70;55.00;;;;;;20516;6842;307312;-71
2023/04/28 05:43:26;;;;;;;5.37;4.97;;;14.90;55.50;;;;;;20729;6842;118292;-72
2023/04/28 05:45:52;;;;;;;5.93;5.43;;;15.10;55.60;;;;;;20515;6842;340844;-71
2023/04/28 05:48:18;;;;;;;5.23;4.83;;;15.10;55.60;;;;;;20716;6842;117588;-71
2023/04/28 05:50:43;;;;;;;5.37;4.97;;;15.10;55.40;;;;;;20524;6842;284095;-70
2023/04/28 05:53:09;;;;;;;5.10;4.70;;;15.30;55.40;;;;;;20517;6842;310425;-72
2023/04/28 05:55:35;;;;;;;4.33;4.13;;;15.60;54.50;;;;;;20730;6842;117186;-72
2023/04/28 05:58:05;;;;;;;4.33;4.13;;;15.60;54.50;;;;;;20692;6842;117889;-73
2023/04/28 06:00:30;;;;;;;4.67;4.27;;;15.40;54.70;;;;;;20731;6842;122527;-72
2023/04/28 06:02:55;;;;;;;4.80;4.50;;;15.20;54.90;;;;;;20512;6842;308613;-71
2023/04/28 06:05:21;;;;;;;5.00;4.60;;;15.30;55.50;;;;;;20729;6842;117326;-72
2023/04/28 06:07:47;;;;;;;5.00;4.60;;;15.40;55.20;;;;;;20518;6842;312563;-73
2023/04/28 06:10:12;;;;;;;5.40;5.00;;;15.60;55.20;;;;;;20484;6842;279011;-72
2023/04/28 06:12:38;;;;;;;5.33;4.93;;;15.90;55.00;;;;;;20518;6842;335741;-72
2023/04/28 06:15:05;;;;;;;4.77;4.37;;;16.10;54.90;;;;;;20722;6842;117286;-73
2023/04/28 06:17:32;;;;;;;4.60;4.30;;;16.00;54.70;;;;;;20726;6842;117205;-72
2023/04/28 06:19:58;;;;;;;4.50;4.30;;;15.70;55.00;;;;;;20712;6842;123914;-73
2023/04/28 06:22:23;;;;;;;4.40;4.10;;;15.50;55.50;;;;;;20731;6840;117699;-72
2023/04/28 06:24:48;;;;;;;4.97;4.57;;;15.30;55.80;;;;;;20529;6841;307748;-73
2023/04/28 06:27:14;;;;;;;4.53;4.25;;;15.50;57.00;;;;;;20736;6841;117540;-72
2023/04/28 06:29:39;;;;;;;4.75;4.45;;;15.60;56.60;;;;;;20729;6841;117043;-73
2023/04/28 06:32:05;;;;;;;7.75;7.15;;;15.40;56.60;;;;;;20711;6842;118244;-73
2023/04/28 06:34:31;;;;;;;7.90;7.40;;;15.30;56.80;;;;;;20521;6842;308661;-73
2023/04/28 06:36:57;;;;;;;6.97;6.57;;;15.60;57.00;;;;;;20739;6842;117579;-73
2023/04/28 06:39:22;;;;;;;6.75;6.25;;;15.50;57.00;;;;;;20523;6842;311204;-73
2023/04/28 06:41:48;;;;;;;7.12;6.70;;;15.70;57.00;;;;;;20527;6842;310913;-73
2023/04/28 06:44:14;;;;;;;8.30;7.63;;;16.10;56.50;;;;;;20715;6842;117467;-73
2023/04/28 06:46:39;;;;;;;9.97;9.10;;;16.00;56.10;;;;;;20733;6842;117761;-75
2023/04/28 06:49:06;;;;;;;6.80;6.30;;;15.80;56.40;;;;;;20524;6842;311004;-73
2023/04/28 06:51:32;;;;;;;7.53;6.90;;;15.90;57.10;;;;;;20728;6842;117674;-72
2023/04/28 06:53:57;;;;;;;6.07;5.57;;;15.90;56.80;;;;;;20457;6842;313923;-74
2023/04/28 06:56:23;;;;;;;6.13;5.63;;;16.00;57.30;;;;;;20725;6842;117301;-73
2023/04/28 06:58:49;;;;;;;6.90;6.40;;;15.90;56.90;;;;;;20516;6842;325712;-73
2023/04/28 07:01:14;;;;;;;5.50;5.20;;;16.10;57.40;;;;;;20725;6842;118036;-73
2023/04/28 07:03:40;;;;;;;7.23;6.63;;;15.70;57.40;;;;;;20731;6842;117228;-73
2023/04/28 07:06:07;;;;;;;7.30;6.70;;;15.70;57.30;;;;;;20500;6842;311529;-73
2023/04/28 07:08:33;;;;;;;7.77;7.17;;;15.90;58.30;;;;;;20722;6842;117461;-73
2023/04/28 07:10:58;;;;;;;6.40;5.77;;;15.80;58.00;;;;;;20730;6842;119391;-73
2023/04/28 07:13:24;;;;;;;17.80;16.20;;;15.60;57.90;;;;;;20516;6842;308534;-72
2023/04/28 07:15:49;;;;;;;6.97;6.47;;;15.80;58.60;;;;;;20733;6842;117701;-72
2023/04/28 07:18:16;;;;;;;6.77;6.30;;;15.90;58.40;;;;;;20505;6842;279176;-73
2023/04/28 07:20:41;;;;;;;6.10;5.70;;;15.90;58.30;;;;;;20519;6842;308220;-72
2023/04/28 07:23:07;;;;;;;5.15;4.85;;;16.20;57.80;;;;;;20521;6842;278177;-73
2023/04/28 07:25:34;;;;;;;4.73;4.30;;;16.40;57.30;;;;;;20720;6842;119316;-73
2023/04/28 07:27:58;;;;;;;5.40;4.90;;;16.30;57.10;;;;;;20701;6842;117756;-73
2023/04/28 07:30:25;;;;;;;6.25;5.75;;;16.00;57.50;;;;;;20516;6842;308601;-73
2023/04/28 07:32:49;;;;;;;5.80;5.30;;;16.10;58.40;;;;;;20720;6840;120317;-73
2023/04/28 07:35:15;;;;;;;7.25;6.80;;;16.00;58.10;;;;;;20515;6841;341561;-72
2023/04/28 07:37:40;;;;;;;8.67;8.07;;;16.10;58.60;;;;;;20516;6841;308146;-73
2023/04/28 07:40:06;;;;;;;11.77;11.00;;;16.30;58.00;;;;;;20703;6841;123847;-73
2023/04/28 07:42:32;;;;;;;7.80;7.30;;;16.20;57.60;;;;;;20517;6841;311811;-72
2023/04/28 07:44:57;;;;;;;4.20;3.90;;;16.20;58.20;;;;;;20722;6842;117178;-72
2023/04/28 07:47:23;;;;;;;5.63;5.27;;;16.10;57.90;;;;;;20730;6842;122156;-72
2023/04/28 07:49:48;;;;;;;11.88;11.02;;;15.80;58.20;;;;;;20519;6842;307279;-72
2023/04/28 07:52:15;;;;;;;12.47;11.40;;;15.90;58.70;;;;;;20704;6842;122651;-73
2023/04/28 07:54:40;;;;;;;12.73;11.70;;;15.80;58.30;;;;;;20725;6842;118159;-73
2023/04/28 07:57:05;;;;;;;7.32;6.93;;;15.60;58.40;;;;;;20515;6842;305854;-73
2023/04/28 07:59:31;;;;;;;6.00;5.60;;;15.70;59.30;;;;;;20511;6842;307304;-72
2023/04/28 08:01:56;;;;;;;13.43;12.43;;;16.00;59.20;;;;;;20511;6842;321571;-73
2023/04/28 08:04:22;;;;;;;6.30;5.80;;;16.30;59.20;;;;;;20706;6842;122348;-72
2023/04/28 08:06:47;;;;;;;8.20;7.70;;;16.20;58.80;;;;;;20526;6842;307583;-73
2023/04/28 08:09:13;;;;;;;11.60;10.80;;;16.20;59.10;;;;;;20525;6842;279067;-72
2023/04/28 08:11:39;;;;;;;30.63;28.13;;;16.50;58.10;;;;;;20514;6842;336923;-73
2023/04/28 08:14:05;;;;;;;19.40;17.60;;;16.50;58.10;;;;;;20717;6842;120547;-73
2023/04/28 08:16:31;;;;;;;13.27;12.23;;;16.00;59.10;;;;;;20730;6842;120286;-71
2023/04/28 08:18:57;;;;;;;10.90;10.18;;;16.00;58.30;;;;;;20517;6842;320924;-71
2023/04/28 08:21:22;;;;;;;19.77;18.17;;;16.00;58.80;;;;;;20516;6842;279511;-72
2023/04/28 08:23:48;;;;;;;18.27;16.47;;;16.30;58.80;;;;;;20722;6842;117604;-71
2023/04/28 08:26:14;;;;;;;21.67;19.57;;;15.90;59.40;;;;;;20705;6842;120223;-72
2023/04/28 08:28:39;;;;;;;26.57;24.30;;;15.80;58.70;;;;;;20511;6842;307397;-71
2023/04/28 08:31:06;;;;;;;14.33;13.00;;;15.90;59.60;;;;;;20728;6842;121743;-71
2023/04/28 08:33:31;;;;;;;10.10;9.23;;;15.80;59.50;;;;;;20728;6842;122565;-71
2023/04/28 08:35:57;;;;;;;8.23;7.53;;;15.60;59.60;;;;;;20722;6842;119909;-72
2023/04/28 08:38:24;;;;;;;9.77;8.98;;;15.50;60.10;;;;;;20516;6842;337596;-72
2023/04/28 08:40:49;;;;;;;10.07;9.30;;;15.70;61.30;;;;;;20722;6842;118363;-73
2023/04/28 08:43:15;;;;;;;8.03;7.43;;;15.70;62.00;;;;;;20725;6842;117387;-72
2023/04/28 08:45:40;;;;;;;7.57;7.07;;;15.60;61.50;;;;;;20522;6840;298099;-72
2023/04/28 08:48:06;;;;;;;6.73;6.27;;;15.70;62.50;;;;;;20699;6841;121031;-76
2023/04/28 08:50:32;;;;;;;7.97;7.37;;;15.80;62.00;;;;;;20499;6841;307348;-75
2023/04/28 08:52:57;;;;;;;6.00;5.60;;;16.10;62.30;;;;;;20504;6841;298651;-74
2023/04/28 08:55:23;;;;;;;6.20;5.70;;;16.80;60.70;;;;;;20520;6842;307758;-74
2023/04/28 08:57:50;;;;;;;6.20;5.80;;;16.80;60.70;;;;;;20522;6842;336857;-74
2023/04/28 09:00:14;;;;;;;7.22;5.35;;;17.10;60.10;;;;;;20706;6842;117304;-75
2023/04/28 09:02:41;;;;;;;7.97;7.43;;;17.00;59.80;;;;;;20732;6842;119979;-73
2023/04/28 09:05:05;;;;;;;5.80;5.50;;;16.80;60.10;;;;;;20730;6842;117651;-73
2023/04/28 09:07:37;;;;;;;7.10;6.60;;;16.70;60.60;;;;;;20509;6842;307660;-73
2023/04/28 09:10:19;;;;;;;10.23;9.57;;;16.80;61.30;;;;;;20481;6842;337296;-75
2023/04/28 09:12:42;;;;;;;7.70;7.20;;;17.20;60.80;;;;;;20702;6842;118321;-76
2023/04/28 09:15:08;;;;;;;7.47;6.97;;;17.30;60.50;;;;;;20473;6842;279028;-75
2023/04/28 09:17:33;;;;;;;5.72;5.32;;;17.40;60.50;;;;;;20479;6842;281085;-75
2023/04/28 09:19:59;;;;;;;6.72;6.32;;;17.60;59.60;;;;;;20438;6842;307755;-77
2023/04/28 09:22:28;;;;;;;6.40;6.00;;;17.90;59.00;;;;;;20514;6842;280589;-76
2023/04/28 09:24:54;;;;;;;6.67;6.23;;;18.00;58.40;;;;;;20721;6842;117780;-75
2023/04/28 09:27:20;;;;;;;6.00;5.60;;;17.80;59.60;;;;;;20515;6842;278262;-75
2023/04/28 09:29:51;;;;;;;4.83;4.53;;;17.80;58.90;;;;;;20702;6842;117522;-74
2023/04/28 09:32:17;;;;;;;6.20;5.70;;;17.70;59.10;;;;;;20479;6842;312877;-75
2023/04/28 09:34:50;;;;;;;7.15;6.50;;;17.80;59.60;;;;;;20726;6842;117528;-76
2023/04/28 09:37:22;;;;;;;5.60;5.20;;;17.70;59.50;;;;;;20724;6842;118458;-73
2023/04/28 09:39:48;;;;;;;5.80;5.40;;;17.50;59.90;;;;;;20715;6842;117276;-75
2023/04/28 09:42:40;;;;;;;5.60;5.20;;;17.30;61.00;;;;;;20691;6842;118819;-75
2023/04/28 09:45:09;;;;;;;4.83;4.43;;;17.20;60.90;;;;;;20510;6842;314664;-75
2023/04/28 09:47:35;;;;;;;8.27;7.47;;;17.60;61.30;;;;;;20713;6842;117290;-75
2023/04/28 09:50:00;;;;;;;7.17;6.67;;;17.70;60.80;;;;;;20710;6842;124042;-74
2023/04/28 09:52:27;;;;;;;5.07;4.67;;;17.60;61.10;;;;;;20724;6842;119971;-74
2023/04/28 09:54:53;;;;;;;6.20;5.70;;;17.90;62.10;;;;;;20505;6840;280874;-73
2023/04/28 09:57:19;;;;;;;3.67;3.37;;;17.80;61.60;;;;;;20727;6841;118138;-74
2023/04/28 09:59:47;;;;;;;5.77;5.23;;;18.00;61.10;;;;;;20728;6841;120339;-74
2023/04/28 10:02:13;;;;;;;4.80;4.40;;;17.90;61.10;;;;;;20472;6841;287822;-73
2023/04/28 10:04:38;;;;;;;5.40;5.00;;;18.10;61.40;;;;;;20506;6841;342235;-74
2023/04/28 10:07:06;;;;;;;5.95;5.55;;;18.90;60.90;;;;;;20517;6842;278277;-73
2023/04/28 10:09:30;;;;;;;6.47;5.87;;;18.80;60.80;;;;;;20721;6842;122028;-72
2023/04/28 10:11:58;;;;;;;4.72;4.32;;;18.90;60.50;;;;;;20513;6842;308411;-73
2023/04/28 10:14:23;;;;;;;3.93;3.43;;;19.10;61.30;;;;;;20734;6842;117689;-72
2023/04/28 10:16:50;;;;;;;2.83;2.60;;;19.20;61.40;;;;;;20737;6842;117557;-72
2023/04/28 10:19:14;;;;;;;2.60;2.50;;;19.20;61.90;;;;;;20729;6842;119279;-73
2023/04/28 10:21:39;;;;;;;3.10;2.80;;;19.30;62.10;;;;;;20530;6842;279429;-72
2023/04/28 10:24:09;;;;;;;7.43;6.50;;;19.50;61.70;;;;;;20669;6842;117848;-73
2023/04/28 10:26:56;;;;;;;2.60;2.50;;;19.70;60.90;;;;;;20714;6842;118212;-72
2023/04/28 10:29:22;;;;;;;4.00;3.70;;;19.70;60.80;;;;;;20714;6842;117246;-72
2023/04/28 10:32:08;;;;;;;5.13;4.70;;;19.70;61.10;;;;;;20516;6842;344959;-71
2023/04/28 10:34:33;;;;;;;3.07;2.77;;;20.00;61.90;;;;;;20573;6842;117199;-72
2023/04/28 10:37:01;;;;;;;1.90;1.80;;;20.20;61.30;;;;;;20525;6842;337737;-72
2023/04/28 10:39:25;;;;;;;1.30;1.30;;;20.60;59.80;;;;;;20726;6842;118191;-76
2023/04/28 10:41:51;;;;;;;2.10;1.30;;;20.60;59.20;;;;;;20693;6845;117277;-73
2023/04/28 10:44:29;;;;;;;1.47;1.10;;;20.50;60.10;;;;;;20661;6842;123552;-73
2023/04/28 10:47:05;;;;;;;1.00;1.00;;;20.50;59.80;;;;;;20507;6842;312240;-73
2023/04/28 10:49:50;;;;;;;1.17;1.07;;;20.80;58.30;;;;;;20467;6857;280975;-72
2023/04/28 10:52:33;;;;;;;0.90;0.90;;;21.20;56.90;;;;;;20282;6857;308443;-73
2023/04/28 10:55:35;;;;;;;1.20;1.10;;;21.40;55.60;;;;;;20516;6842;308305;-74
2023/04/28 10:58:20;;;;;;;1.30;0.80;;;21.60;55.00;;;;;;20688;6842;117374;-74
2023/04/28 11:00:46;;;;;;;0.80;0.80;;;21.30;55.10;;;;;;20504;6842;311007;-71
2023/04/28 11:03:31;;;;;;;1.03;0.90;;;21.20;55.40;;;;;;20707;6842;117333;-73
2023/04/28 11:06:21;;;;;;;0.97;0.97;;;21.10;55.50;;;;;;20465;6842;307584;-73
2023/04/28 11:08:45;;;;;;;0.90;0.90;;;21.20;56.40;;;;;;20338;6841;277665;-74
2023/04/28 11:11:15;;;;;;;0.70;0.70;;;21.50;55.20;;;;;;20520;6841;307670;-73
2023/04/28 11:13:40;;;;;;;0.70;0.70;;;21.50;54.50;;;;;;20496;6841;306180;-73
2023/04/28 11:16:06;;;;;;;0.40;0.40;;;21.70;53.90;;;;;;20702;6841;117231;-73
2023/04/28 11:18:51;;;;;;;0.50;0.50;;;21.40;53.60;;;;;;20522;6842;292557;-73
2023/04/28 11:21:17;;;;;;;1.00;0.60;;;21.40;53.80;;;;;;20396;6842;278440;-72
2023/04/28 11:23:43;;;;;;;0.43;0.43;;;21.40;53.80;;;;;;20682;6842;117257;-75
2023/04/28 11:26:09;;;;;;;1.27;0.47;;;21.10;54.40;;;;;;20653;6842;117530;-73
2023/04/28 11:28:36;;;;;;;0.40;0.40;;;20.70;54.40;;;;;;20707;6842;117398;-73
2023/04/28 11:31:11;;;;;;;0.50;0.50;;;20.30;54.80;;;;;;20494;6842;297503;-73
2023/04/28 11:33:37;;;;;;;0.40;0.40;;;20.40;54.50;;;;;;20697;6842;120678;-74
2023/04/28 11:36:02;;;;;;;0.50;0.50;;;20.20;54.30;;;;;;20705;6842;117732;-74
2023/04/28 11:38:28;;;;;;;0.30;0.30;;;19.90;54.70;;;;;;20719;6842;117384;-72
2023/04/28 11:40:57;;;;;;;0.40;0.40;;;19.70;55.30;;;;;;20468;6857;337244;-74
2023/04/28 11:43:30;;;;;;;0.30;0.30;;;19.90;55.70;;;;;;20673;6857;117487;-75
2023/04/28 11:45:56;;;;;;;0.43;0.43;;;19.90;55.70;;;;;;20685;6853;117377;-73
2023/04/28 11:48:22;;;;;;;0.40;0.40;;;19.90;55.60;;;;;;20699;6842;117608;-73
2023/04/28 11:50:48;;;;;;;0.50;0.47;;;19.90;55.90;;;;;;20715;6842;123016;-73
2023/04/28 11:53:13;;;;;;;0.40;0.40;;;19.80;56.00;;;;;;20710;6842;120348;-73
2023/04/28 11:55:39;;;;;;;0.60;0.40;;;19.80;56.20;;;;;;20718;6842;117363;-72
2023/04/28 11:58:17;;;;;;;1.20;0.40;;;19.80;56.20;;;;;;20505;6842;305987;-72
2023/04/28 12:00:44;;;;;;;0.30;0.30;;;20.40;55.30;;;;;;20725;6842;117514;-71
2023/04/28 12:03:09;;;;;;;0.40;0.40;;;20.40;55.30;;;;;;20516;6842;307968;-72
2023/04/28 12:05:36;;;;;;;0.33;0.33;;;20.70;54.40;;;;;;20733;6842;117635;-71
2023/04/28 12:08:01;;;;;;;1.10;0.40;;;20.90;52.80;;;;;;20443;6842;307605;-73
2023/04/28 12:10:27;;;;;;;2.73;0.23;;;20.90;52.70;;;;;;20718;6842;121298;-71
2023/04/28 12:12:53;;;;;;;0.93;0.50;;;20.90;53.70;;;;;;20499;6842;281602;-72
2023/04/28 12:15:20;;;;;;;0.30;0.30;;;20.80;53.60;;;;;;20692;6842;117329;-72
2023/04/28 12:17:45;;;;;;;0.43;0.43;;;20.80;53.60;;;;;;20462;6842;343651;-72
2023/04/28 12:20:11;;;;;;;1.02;0.40;;;20.90;52.70;;;;;;20483;6840;278010;-73
2023/04/28 12:22:44;;;;;;;0.50;0.50;;;21.20;52.70;;;;;;20436;6841;277958;-72
2023/04/28 12:25:09;;;;;;;0.45;0.40;;;21.30;51.40;;;;;;20501;6841;337508;-72
2023/04/28 12:27:37;;;;;;;0.80;0.47;;;21.40;50.70;;;;;;20516;6841;339844;-72
2023/04/28 12:30:00;;;;;;;0.43;0.43;;;21.40;51.20;;;;;;20705;6842;117651;-72
2023/04/28 12:32:36;;;;;;;0.33;0.30;;;21.20;51.50;;;;;;20732;6842;117706;-71